createdAt,value
2018-04-01T00:02:06.508Z,31.40
2018-04-01T00:04:32.343Z,31.83
2018-04-01T00:06:58.166Z,31.70
2018-04-01T00:09:23.973Z,33.07
2018-04-01T00:11:49.791Z,31.83
2018-04-01T00:14:15.612Z,32.17
2018-04-01T00:16:41.482Z,31.00
2018-04-01T00:19:07.427Z,33.57
2018-04-01T00:21:33.226Z,33.63
2018-04-01T00:23:59.119Z,35.90
2018-04-01T00:26:24.994Z,36.57
2018-04-01T00:28:50.803Z,34.57
2018-04-01T00:31:16.638Z,34.17
2018-04-01T00:33:42.450Z,35.07
2018-04-01T00:36:08.257Z,36.20
2018-04-01T00:38:34.038Z,34.73
2018-04-01T00:40:59.879Z,33.53
2018-04-01T00:43:25.699Z,29.60
2018-04-01T00:45:51.516Z,24.83
2018-04-01T00:48:17.341Z,25.10
2018-04-01T00:50:43.169Z,23.73
2018-04-01T00:53:09.052Z,19.90
2018-04-01T00:55:34.979Z,21.80
2018-04-01T00:58:00.829Z,20.83
2018-04-01T01:00:26.648Z,20.87
2018-04-01T01:02:53.078Z,20.77
2018-04-01T01:05:18.896Z,21.40
2018-04-01T01:07:44.716Z,21.63
2018-04-01T01:10:10.542Z,22.90
2018-04-01T01:12:36.365Z,23.73
2018-04-01T01:15:02.176Z,22.33
2018-04-01T01:17:27.978Z,24.47
2018-04-01T01:19:53.780Z,26.43
2018-04-01T01:22:19.637Z,26.83
2018-04-01T01:24:45.462Z,24.20
2018-04-01T01:27:11.274Z,20.57
2018-04-01T01:29:37.141Z,20.87
2018-04-01T01:32:02.921Z,20.63
2018-04-01T01:34:28.826Z,20.90
2018-04-01T01:36:54.615Z,20.23
2018-04-01T01:39:20.535Z,21.63
2018-04-01T01:41:47.038Z,19.83
2018-04-01T01:44:12.897Z,19.92
2018-04-01T01:46:38.745Z,20.67
2018-04-01T01:49:04.625Z,18.53
2018-04-01T01:51:30.544Z,17.97
2018-04-01T01:53:56.387Z,16.53
2018-04-01T01:56:22.236Z,16.53
2018-04-01T01:58:48.070Z,16.90
2018-04-01T02:01:13.888Z,16.80
2018-04-01T02:03:39.797Z,15.33
2018-04-01T02:06:05.594Z,15.93
2018-04-01T02:08:31.458Z,16.50
2018-04-01T02:10:57.271Z,16.93
2018-04-01T02:13:23.065Z,17.23
2018-04-01T02:15:48.878Z,18.07
2018-04-01T02:18:14.685Z,18.93
2018-04-01T02:20:40.577Z,18.00
2018-04-01T02:23:06.414Z,17.27
2018-04-01T02:25:32.326Z,19.33
2018-04-01T02:27:58.124Z,20.17
2018-04-01T02:30:23.939Z,19.87
2018-04-01T02:32:49.747Z,20.43
2018-04-01T02:35:15.683Z,19.73
2018-04-01T02:37:41.491Z,20.93
2018-04-01T02:40:07.378Z,21.30
2018-04-01T02:42:33.197Z,22.00
2018-04-01T02:44:59.030Z,21.83
2018-04-01T02:47:24.827Z,22.60
2018-04-01T02:49:50.673Z,20.63
2018-04-01T02:52:16.476Z,21.33
2018-04-01T02:54:42.318Z,20.37
2018-04-01T02:57:08.114Z,20.80
2018-04-01T02:59:33.920Z,22.37
2018-04-01T03:01:59.726Z,19.87
2018-04-01T03:04:25.540Z,19.90
2018-04-01T03:06:51.362Z,17.40
2018-04-01T03:09:17.192Z,18.77
2018-04-01T03:11:43.158Z,16.20
2018-04-01T03:14:09.003Z,16.57
2018-04-01T03:16:34.838Z,15.90
2018-04-01T03:19:00.670Z,15.23
2018-04-01T03:21:26.522Z,14.47
2018-04-01T03:23:52.377Z,15.83
2018-04-01T03:26:18.196Z,17.60
2018-04-01T03:28:44.036Z,17.13
2018-04-01T03:31:09.864Z,16.53
2018-04-01T03:33:35.684Z,17.93
2018-04-01T03:36:01.511Z,17.97
2018-04-01T03:38:27.500Z,17.57
2018-04-01T03:40:53.336Z,19.98
2018-04-01T03:43:19.309Z,19.40
2018-04-01T03:45:45.129Z,20.37
2018-04-01T03:48:10.934Z,20.93
2018-04-01T03:50:36.722Z,22.87
2018-04-01T03:53:02.558Z,24.13
2018-04-01T03:55:28.357Z,24.23
2018-04-01T03:57:54.158Z,28.47
2018-04-01T04:00:19.943Z,27.00
2018-04-01T04:02:45.954Z,27.40
2018-04-01T04:05:11.798Z,30.48
2018-04-01T04:07:37.646Z,29.67
2018-04-01T04:10:04.091Z,31.43
2018-04-01T04:12:29.973Z,30.62
2018-04-01T04:14:55.788Z,31.97
2018-04-01T04:17:21.663Z,33.00
2018-04-01T04:19:47.529Z,30.47
2018-04-01T04:22:13.360Z,31.73
2018-04-01T04:24:39.369Z,34.03
2018-04-01T04:27:05.253Z,32.47
2018-04-01T04:29:31.198Z,33.53
2018-04-01T04:31:57.022Z,34.17
2018-04-01T04:34:22.833Z,34.30
2018-04-01T04:36:48.666Z,37.13
2018-04-01T04:39:14.468Z,37.50
2018-04-01T04:41:40.266Z,40.13
2018-04-01T04:44:06.070Z,41.13
2018-04-01T04:46:31.913Z,42.57
2018-04-01T04:48:57.759Z,45.20
2018-04-01T04:51:23.790Z,45.20
2018-04-01T04:53:49.614Z,48.97
2018-04-01T04:56:15.659Z,52.50
2018-04-01T04:58:41.655Z,54.35
2018-04-01T05:01:07.466Z,56.58
2018-04-01T05:03:33.514Z,61.77
2018-04-01T05:05:59.482Z,64.00
2018-04-01T05:08:25.366Z,74.07
2018-04-01T05:10:51.348Z,78.60
2018-04-01T05:13:17.140Z,88.25
2018-04-01T05:15:42.942Z,98.53
2018-04-01T05:18:08.766Z,105.43
2018-04-01T05:20:34.604Z,104.57
2018-04-01T05:23:00.440Z,104.83
2018-04-01T05:25:26.255Z,98.37
2018-04-01T05:27:52.049Z,108.03
2018-04-01T05:30:17.946Z,109.90
2018-04-01T05:32:43.782Z,107.10
2018-04-01T05:35:09.611Z,105.83
2018-04-01T05:37:36.435Z,103.33
2018-04-01T05:40:02.265Z,101.50
2018-04-01T05:42:28.086Z,101.70
2018-04-01T05:44:53.913Z,105.57
2018-04-01T05:47:19.958Z,107.80
2018-04-01T05:49:45.783Z,106.80
2018-04-01T05:52:11.641Z,106.37
2018-04-01T05:54:37.559Z,104.30
2018-04-01T05:57:03.375Z,112.27
2018-04-01T05:59:29.370Z,109.13
2018-04-01T06:01:55.150Z,110.33
2018-04-01T06:04:21.132Z,114.80
2018-04-01T06:06:47.135Z,119.97
2018-04-01T06:09:13.103Z,119.43
2018-04-01T06:11:38.962Z,110.37
2018-04-01T06:14:04.844Z,116.33
2018-04-01T06:16:30.666Z,131.03
2018-04-01T06:18:56.508Z,126.40
2018-04-01T06:21:22.330Z,131.30
2018-04-01T06:23:48.174Z,132.20
2018-04-01T06:26:13.998Z,144.23
2018-04-01T06:28:39.780Z,131.57
2018-04-01T06:31:05.632Z,142.93
2018-04-01T06:33:31.523Z,146.80
2018-04-01T06:35:57.321Z,151.83
2018-04-01T06:38:23.270Z,150.73
2018-04-01T06:40:49.082Z,156.07
2018-04-01T06:43:14.893Z,156.00
2018-04-01T06:45:40.686Z,140.30
2018-04-01T06:48:06.694Z,143.60
2018-04-01T06:50:32.544Z,135.35
2018-04-01T06:52:58.397Z,131.03
2018-04-01T06:55:24.221Z,127.37
2018-04-01T06:57:50.065Z,128.47
2018-04-01T07:00:15.878Z,120.20
2018-04-01T07:02:41.676Z,119.40
2018-04-01T07:05:07.495Z,112.00
2018-04-01T07:07:33.329Z,111.63
2018-04-01T07:09:59.612Z,102.33
2018-04-01T07:12:25.672Z,103.22
2018-04-01T07:14:51.678Z,94.40
2018-04-01T07:17:17.630Z,93.37
2018-04-01T07:19:43.515Z,95.60
2018-04-01T07:22:09.355Z,106.67
2018-04-01T07:24:35.170Z,111.97
2018-04-01T07:27:01.035Z,125.27
2018-04-01T07:29:26.861Z,128.20
2018-04-01T07:31:52.730Z,132.13
2018-04-01T07:34:18.549Z,117.20
2018-04-01T07:36:44.361Z,73.43
2018-04-01T07:39:10.157Z,43.00
2018-04-01T07:41:35.994Z,39.13
2018-04-01T07:44:01.823Z,39.87
2018-04-01T07:46:27.731Z,34.67
2018-04-01T07:48:53.589Z,33.60
2018-04-01T07:51:19.487Z,35.13
2018-04-01T07:53:45.286Z,32.33
2018-04-01T07:56:11.121Z,30.67
2018-04-01T07:58:36.935Z,25.87
2018-04-01T08:01:02.779Z,25.37
2018-04-01T08:03:28.662Z,20.50
2018-04-01T08:05:54.510Z,17.93
2018-04-01T08:08:20.307Z,18.10
2018-04-01T08:10:46.105Z,16.63
2018-04-01T08:13:11.923Z,14.80
2018-04-01T08:15:37.708Z,13.07
2018-04-01T08:18:03.574Z,11.07
2018-04-01T08:20:29.383Z,10.60
2018-04-01T08:22:55.284Z,10.07
2018-04-01T08:25:21.688Z,9.40
2018-04-01T08:27:47.518Z,9.60
2018-04-01T08:30:13.363Z,9.47
2018-04-01T08:32:39.281Z,9.37
2018-04-01T08:35:05.121Z,10.90
2018-04-01T08:37:31.947Z,12.17
2018-04-01T08:39:57.789Z,13.70
2018-04-01T08:42:23.739Z,14.77
2018-04-01T08:44:49.560Z,15.67
2018-04-01T08:47:15.481Z,17.30
2018-04-01T08:49:41.313Z,18.40
2018-04-01T08:52:07.114Z,17.77
2018-04-01T08:54:32.911Z,15.60
2018-04-01T08:56:58.709Z,18.40
2018-04-01T08:59:24.521Z,18.83
2018-04-01T09:01:50.312Z,19.87
2018-04-01T09:04:16.106Z,19.03
2018-04-01T09:06:41.992Z,18.10
2018-04-01T09:09:07.796Z,19.73
2018-04-01T09:11:33.671Z,19.27
2018-04-01T09:13:59.493Z,21.30
2018-04-01T09:16:25.339Z,18.80
2018-04-01T09:18:51.241Z,20.83
2018-04-01T09:21:17.069Z,18.73
2018-04-01T09:23:43.807Z,19.83
2018-04-01T09:26:09.667Z,19.93
2018-04-01T09:28:35.563Z,18.57
2018-04-01T09:31:01.367Z,19.73
2018-04-01T09:33:27.277Z,19.30
2018-04-01T09:35:53.105Z,21.20
2018-04-01T09:38:18.914Z,22.03
2018-04-01T09:40:44.719Z,21.33
2018-04-01T09:43:10.571Z,21.67
2018-04-01T09:45:36.374Z,21.67
2018-04-01T09:48:02.170Z,19.90
2018-04-01T09:50:27.997Z,21.57
2018-04-01T09:52:53.811Z,19.77
2018-04-01T09:55:19.623Z,21.53
2018-04-01T09:57:45.450Z,20.43
2018-04-01T10:00:11.311Z,18.33
2018-04-01T10:02:37.350Z,19.20
2018-04-01T10:05:09.460Z,19.10
2018-04-01T10:07:35.652Z,16.40
2018-04-01T10:10:01.731Z,17.02
2018-04-01T10:12:27.830Z,15.75
2018-04-01T10:14:53.857Z,16.42
2018-04-01T10:17:19.882Z,16.98
2018-04-01T10:19:46.030Z,17.58
2018-04-01T10:22:12.102Z,17.73
2018-04-01T10:24:38.221Z,19.48
2018-04-01T10:27:04.243Z,22.48
2018-04-01T10:29:30.280Z,23.83
2018-04-01T10:31:56.284Z,25.27
2018-04-01T10:34:22.303Z,25.55
2018-04-01T10:36:48.338Z,28.70
2018-04-01T10:39:14.360Z,26.40
2018-04-01T10:41:40.445Z,31.25
2018-04-01T10:44:06.484Z,32.17
2018-04-01T10:46:33.214Z,39.38
2018-04-01T10:48:59.323Z,38.83
2018-04-01T10:51:25.374Z,40.10
2018-04-01T10:53:56.148Z,43.45
2018-04-01T10:56:22.152Z,44.67
2018-04-01T10:58:48.004Z,48.70
2018-04-01T11:01:13.947Z,51.17
2018-04-01T11:03:39.793Z,52.47
2018-04-01T11:06:05.686Z,54.80
2018-04-01T11:08:31.654Z,57.83
2018-04-01T11:10:57.542Z,56.47
2018-04-01T11:13:23.445Z,48.47
2018-04-01T11:15:49.410Z,63.00
2018-04-01T11:18:15.228Z,64.80
2018-04-01T11:20:41.115Z,47.80
2018-04-01T11:23:06.941Z,49.37
2018-04-01T11:25:32.797Z,57.27
2018-04-01T11:27:58.636Z,54.07
2018-04-01T11:30:24.456Z,51.60
2018-04-01T11:32:50.284Z,55.07
2018-04-01T11:35:16.093Z,51.70
2018-04-01T11:37:41.941Z,52.90
2018-04-01T11:40:07.800Z,51.60
2018-04-01T11:42:33.632Z,54.40
2018-04-01T11:44:59.513Z,55.47
2018-04-01T11:47:25.565Z,67.93
2018-04-01T11:49:51.432Z,55.35
2018-04-01T11:52:17.395Z,75.80
2018-04-01T11:54:43.342Z,59.30
2018-04-01T11:57:09.952Z,70.23
2018-04-01T11:59:35.767Z,56.65
2018-04-01T12:02:01.582Z,68.43
2018-04-01T12:04:27.486Z,55.57
2018-04-01T12:06:53.356Z,55.30
2018-04-01T12:09:19.334Z,68.37
2018-04-01T12:11:45.200Z,61.50
2018-04-01T12:14:11.034Z,66.43
2018-04-01T12:16:36.889Z,55.97
2018-04-01T12:19:02.811Z,72.83
2018-04-01T12:21:28.747Z,64.03
2018-04-01T12:23:54.573Z,78.60
2018-04-01T12:26:20.402Z,60.47
2018-04-01T12:28:46.270Z,59.43
2018-04-01T12:31:12.131Z,60.27
2018-04-01T12:33:37.977Z,72.17
2018-04-01T12:36:03.802Z,63.47
2018-04-01T12:38:29.654Z,70.07
2018-04-01T12:40:55.467Z,80.33
2018-04-01T12:43:21.407Z,78.63
2018-04-01T12:45:47.222Z,93.30
2018-04-01T12:48:13.109Z,99.17
2018-04-01T12:50:38.943Z,100.13
2018-04-01T12:53:04.764Z,86.03
2018-04-01T12:55:30.695Z,114.37
2018-04-01T12:57:56.537Z,109.00
2018-04-01T13:00:22.332Z,114.23
2018-04-01T13:02:48.141Z,118.67
2018-04-01T13:05:13.968Z,124.00
2018-04-01T13:07:39.928Z,125.20
2018-04-01T13:10:05.847Z,122.03
2018-04-01T13:12:31.649Z,120.30
2018-04-01T13:14:57.532Z,122.00
2018-04-01T13:17:23.353Z,127.83
2018-04-01T13:19:49.314Z,103.57
2018-04-01T13:22:15.121Z,133.80
2018-04-01T13:24:41.055Z,129.50
2018-04-01T13:27:06.930Z,127.87
2018-04-01T13:29:33.495Z,130.97
2018-04-01T13:31:59.399Z,136.02
2018-04-01T13:34:25.280Z,135.23
2018-04-01T13:36:51.145Z,132.63
2018-04-01T13:39:16.949Z,133.57
2018-04-01T13:41:42.766Z,134.60
2018-04-01T13:44:08.633Z,124.47
2018-04-01T13:46:34.442Z,123.70
2018-04-01T13:49:00.294Z,117.40
2018-04-01T13:51:26.103Z,126.03
2018-04-01T13:53:51.972Z,130.27
2018-04-01T13:56:17.886Z,130.70
2018-04-01T13:58:43.751Z,106.20
2018-04-01T14:01:09.549Z,112.47
2018-04-01T14:03:35.444Z,105.83
2018-04-01T14:06:01.260Z,109.10
2018-04-01T14:08:27.261Z,101.77
2018-04-01T14:10:53.115Z,97.40
2018-04-01T14:13:18.927Z,96.90
2018-04-01T14:15:44.782Z,99.43
2018-04-01T14:18:10.628Z,97.67
2018-04-01T14:20:36.531Z,91.80
2018-04-01T14:23:02.412Z,80.07
2018-04-01T14:25:28.247Z,80.00
2018-04-01T14:27:54.094Z,72.53
2018-04-01T14:30:19.945Z,66.07
2018-04-01T14:32:45.755Z,69.43
2018-04-01T14:35:11.675Z,66.87
2018-04-01T14:37:37.482Z,67.73
2018-04-01T14:40:03.351Z,65.63
2018-04-01T14:42:29.180Z,67.50
2018-04-01T14:44:55.023Z,66.07
2018-04-01T14:47:20.983Z,66.00
2018-04-01T14:49:46.820Z,63.87
2018-04-01T14:52:12.627Z,63.70
2018-04-01T14:54:38.466Z,57.57
2018-04-01T14:57:04.321Z,58.57
2018-04-01T14:59:30.154Z,58.83
2018-04-01T15:01:56.218Z,60.13
2018-04-01T15:04:22.047Z,59.63
2018-04-01T15:06:47.838Z,57.77
2018-04-01T15:09:13.832Z,58.90
2018-04-01T15:11:39.698Z,61.97
2018-04-01T15:14:05.606Z,63.77
2018-04-01T15:16:31.521Z,56.27
2018-04-01T15:18:57.356Z,53.73
2018-04-01T15:21:23.272Z,57.97
2018-04-01T15:23:49.103Z,57.03
2018-04-01T15:26:14.914Z,53.43
2018-04-01T15:28:40.771Z,59.53
2018-04-01T15:31:06.628Z,49.70
2018-04-01T15:33:32.489Z,52.67
2018-04-01T15:35:58.285Z,59.90
2018-04-01T15:38:24.184Z,50.77
2018-04-01T15:40:50.036Z,48.13
2018-04-01T15:43:15.844Z,56.67
2018-04-01T15:45:41.694Z,45.93
2018-04-01T15:48:07.550Z,55.80
2018-04-01T15:50:33.371Z,44.40
2018-04-01T15:52:59.308Z,51.93
2018-04-01T15:55:25.279Z,42.13
2018-04-01T15:57:51.130Z,53.93
2018-04-01T16:00:16.973Z,43.70
2018-04-01T16:02:42.811Z,49.23
2018-04-01T16:05:08.622Z,42.47
2018-04-01T16:07:34.458Z,48.20
2018-04-01T16:10:00.260Z,48.27
2018-04-01T16:12:26.085Z,45.70
2018-04-01T16:14:51.912Z,36.17
2018-04-01T16:17:17.697Z,40.43
2018-04-01T16:19:43.658Z,34.43
2018-04-01T16:22:10.023Z,38.63
2018-04-01T16:24:35.944Z,35.97
2018-04-01T16:27:01.826Z,36.87
2018-04-01T16:29:27.697Z,37.33
2018-04-01T16:31:53.562Z,35.83
2018-04-01T16:34:19.381Z,34.87
2018-04-01T16:36:45.173Z,34.00
2018-04-01T16:39:11.085Z,35.77
2018-04-01T16:41:36.911Z,29.47
2018-04-01T16:44:02.716Z,32.90
2018-04-01T16:46:28.522Z,27.80
2018-04-01T16:48:54.352Z,27.30
2018-04-01T16:51:20.212Z,28.87
2018-04-01T16:53:46.102Z,26.27
2018-04-01T16:56:11.970Z,22.73
2018-04-01T16:58:37.851Z,22.70
2018-04-01T17:01:03.665Z,24.57
2018-04-01T17:03:29.496Z,21.53
2018-04-01T17:05:55.400Z,22.40
2018-04-01T17:08:21.211Z,19.20
2018-04-01T17:10:47.070Z,17.80
2018-04-01T17:13:12.907Z,18.17
2018-04-01T17:15:38.739Z,15.10
2018-04-01T17:18:04.571Z,14.50
2018-04-01T17:20:30.379Z,14.27
2018-04-01T17:25:15.710Z,16.87
2018-04-01T17:27:42.311Z,17.03
2018-04-01T17:30:08.155Z,17.30
2018-04-01T17:32:34.016Z,17.37
2018-04-01T17:34:59.828Z,18.43
2018-04-01T17:37:25.746Z,18.87
2018-04-01T17:39:51.638Z,20.67
2018-04-01T17:42:17.545Z,20.20
2018-04-01T17:44:43.376Z,21.07
2018-04-01T17:47:09.228Z,19.23
2018-04-01T17:49:35.103Z,20.47
2018-04-01T17:52:00.909Z,21.47
2018-04-01T17:54:26.781Z,20.87
2018-04-01T17:56:52.690Z,21.07
2018-04-01T17:59:18.671Z,22.73
2018-04-01T18:01:44.530Z,22.50
2018-04-01T18:04:10.323Z,21.70
2018-04-01T18:06:36.129Z,21.50
2018-04-01T18:09:02.005Z,21.53
2018-04-01T18:11:27.902Z,25.00
2018-04-01T18:13:53.705Z,23.10
2018-04-01T18:16:19.607Z,22.90
2018-04-01T18:18:45.474Z,22.30
2018-04-01T18:21:11.339Z,21.17
2018-04-01T18:23:37.155Z,21.63
2018-04-01T18:26:02.962Z,20.13
2018-04-01T18:28:28.788Z,20.10
2018-04-01T18:30:54.649Z,20.90
2018-04-01T18:33:20.491Z,20.73
2018-04-01T18:35:46.309Z,20.80
2018-04-01T18:38:12.145Z,18.83
2018-04-01T18:40:37.966Z,19.70
2018-04-01T18:43:03.850Z,19.87
2018-04-01T18:45:29.724Z,20.03
2018-04-01T18:47:56.085Z,19.77
2018-04-01T18:50:22.013Z,14.87
2018-04-01T18:52:47.807Z,15.80
2018-04-01T18:55:13.666Z,15.17
2018-04-01T18:57:39.569Z,16.00
2018-04-01T19:00:05.359Z,15.70
2018-04-01T19:02:31.310Z,15.67
2018-04-01T19:04:57.894Z,16.50
2018-04-01T19:07:23.840Z,15.98
2018-04-01T19:09:49.666Z,15.13
2018-04-01T19:12:15.539Z,15.13
2018-04-01T19:14:42.163Z,16.73
2018-04-01T19:17:08.185Z,17.08
2018-04-01T19:19:34.314Z,16.83
2018-04-01T19:22:00.445Z,16.90
2018-04-01T19:24:26.462Z,15.20
2018-04-01T19:26:52.456Z,15.95
2018-04-01T19:29:18.531Z,16.80
2018-04-01T19:31:44.630Z,16.40
2018-04-01T19:34:10.659Z,14.68
2018-04-01T19:36:36.681Z,15.00
2018-04-01T19:39:02.793Z,16.30
2018-04-01T19:41:28.802Z,16.60
2018-04-01T19:43:54.835Z,16.45
2018-04-01T19:46:20.896Z,17.25
2018-04-01T19:48:46.915Z,16.98
2018-04-01T19:51:13.047Z,17.17
2018-04-01T19:53:39.171Z,18.43
2018-04-01T19:56:12.093Z,18.90
2018-04-01T19:58:38.207Z,19.67
2018-04-01T20:01:04.371Z,18.35
2018-04-01T20:03:30.608Z,18.05
2018-04-01T20:05:56.607Z,18.90
2018-04-01T20:08:23.292Z,19.83
2018-04-01T20:10:49.427Z,18.12
2018-04-01T20:13:15.490Z,19.15
2018-04-01T20:15:41.570Z,18.60
2018-04-01T20:18:07.776Z,20.23
2018-04-01T20:20:33.888Z,19.87
2018-04-01T20:23:00.015Z,19.90
2018-04-01T20:25:26.079Z,22.87
2018-04-01T20:27:52.095Z,20.15
2018-04-01T20:30:18.201Z,19.77
2018-04-01T20:32:44.263Z,19.15
2018-04-01T20:35:10.387Z,18.62
2018-04-01T20:37:36.539Z,18.37
2018-04-01T20:40:02.613Z,20.15
2018-04-01T20:42:28.772Z,21.15
2018-04-01T20:44:54.915Z,20.12
2018-04-01T20:47:20.970Z,20.33
2018-04-01T20:49:47.060Z,22.08
2018-04-01T20:52:13.850Z,19.67
2018-04-01T20:54:40.089Z,20.48
2018-04-01T20:57:06.059Z,19.65
2018-04-01T20:59:32.117Z,18.05
2018-04-01T21:01:58.229Z,20.83
2018-04-01T21:04:24.405Z,19.55
2018-04-01T21:06:50.541Z,20.27
2018-04-01T21:09:16.670Z,20.62
2018-04-01T21:11:42.708Z,20.83
2018-04-01T21:14:08.806Z,21.25
2018-04-01T21:16:34.840Z,23.55
2018-04-01T21:19:00.894Z,24.60
2018-04-01T21:21:27.040Z,33.13
2018-04-01T21:23:53.154Z,28.40
2018-04-01T21:26:19.213Z,28.83
2018-04-01T21:28:45.239Z,27.17
2018-04-01T21:31:11.317Z,27.27
2018-04-01T21:33:37.419Z,29.98
2018-04-01T21:36:03.435Z,29.48
2018-04-01T21:38:29.478Z,31.27
2018-04-01T21:40:56.124Z,31.75
2018-04-01T21:43:23.127Z,29.25
2018-04-01T21:45:49.150Z,28.00
2018-04-01T21:48:15.176Z,26.15
2018-04-01T21:50:41.174Z,25.33
2018-04-01T21:53:07.199Z,25.95
2018-04-01T21:55:33.210Z,26.20
2018-04-01T21:57:59.279Z,24.87
2018-04-01T22:00:25.301Z,26.85
2018-04-01T22:02:51.364Z,26.98
2018-04-01T22:05:17.514Z,27.73
2018-04-01T22:07:43.583Z,26.12
2018-04-01T22:10:10.250Z,26.20
2018-04-01T22:12:36.280Z,26.12
2018-04-01T22:15:02.408Z,31.42
2018-04-01T22:17:28.486Z,29.77
2018-04-01T22:19:54.536Z,31.15
2018-04-01T22:22:20.634Z,32.08
2018-04-01T22:24:46.653Z,30.58
2018-04-01T22:27:12.664Z,29.50
2018-04-01T22:29:38.753Z,27.02
2018-04-01T22:32:04.827Z,27.77
2018-04-01T22:34:30.876Z,27.90
2018-04-01T22:36:56.926Z,27.27
2018-04-01T22:39:22.985Z,26.10
2018-04-01T22:41:49.054Z,27.40
2018-04-01T22:44:15.058Z,26.67
2018-04-01T22:46:41.091Z,27.85
2018-04-01T22:49:07.170Z,28.02
2018-04-01T22:51:33.222Z,28.45
2018-04-01T22:53:59.250Z,29.83
2018-04-01T22:56:25.302Z,30.75
2018-04-01T22:58:52.040Z,28.98
2018-04-01T23:01:18.057Z,29.67
2018-04-01T23:03:44.078Z,30.62
2018-04-01T23:06:10.130Z,29.37
2018-04-01T23:08:36.149Z,31.08
2018-04-01T23:11:02.275Z,28.87
2018-04-01T23:13:28.969Z,29.27
2018-04-01T23:15:55.081Z,29.77
2018-04-01T23:18:22.825Z,30.42
2018-04-01T23:20:48.933Z,30.73
2018-04-01T23:23:15.023Z,31.37
2018-04-01T23:25:41.072Z,29.70
2018-04-01T23:28:07.104Z,28.48
2018-04-01T23:30:33.149Z,30.05
2018-04-01T23:32:59.198Z,29.77
2018-04-01T23:35:25.228Z,29.60
2018-04-01T23:37:51.331Z,28.85
2018-04-01T23:40:17.374Z,28.67
2018-04-01T23:42:43.474Z,30.15
2018-04-01T23:45:09.506Z,29.07
2018-04-01T23:47:35.674Z,26.35
2018-04-01T23:50:01.884Z,28.70
2018-04-01T23:52:27.981Z,28.20
2018-04-01T23:54:54.034Z,30.90
2018-04-01T23:57:20.071Z,27.70
2018-04-01T23:59:46.075Z,27.83
